Cuneyt Solakoglu — TCTN4 — position and weather

sailwx.info

Track history (hours):
 
Tides and Currents Weather Stations Pressure Air Temp Water Temp Dewpoint Dewpoint Depression Visibility Wind Speed Wind Dir Waves Ship Positions

Cuneyt Solakoglu

Last reported at 2017-Jan-19 00:14 UTC. Time now 2017-Jan-20 16:01 UTC.
Position N 38°29' E 024°59'.

Length 193 m; draft 6.4 m.

Type: Ship (hazmat cat A). MMSI: 271002676.

Date/timePositionNaut miles runAvg speedWind from/ knotsBaromVisibWave heightAir tempDewpointWater temp
2017-Jan-19 00:14N 38°29' E 024°59'3820.4
2017-Jan-18 22:23N 37°55' E 024°37'1720.1
2017-Jan-18 21:32N 37°40' E 024°27'61815.7
2017-Jan-17 06:15N 44°13' E 013°57'1318.2
2017-Jan-17 05:33N 44°24' E 013°47'1818.0
2017-Jan-17 04:33N 44°39' E 013°33'1919.4
2017-Jan-17 03:34N 44°55' E 013°19'1919.2
2017-Jan-17 02:33N 45°12' E 013°05'1817.9
2017-Jan-17 01:34N 45°29' E 013°13'2019.5
2017-Jan-17 00:34N 45°39' E 013°37'5 5.1
2017-Jan-16 23:29N 45°38' E 013°45'0 0.0
2017-Jan-16 22:31N 45°38' E 013°45'0 0.0
2017-Jan-16 21:31N 45°38' E 013°45'0 0.0
2017-Jan-16 20:34N 45°38' E 013°45'0 0.0
2017-Jan-16 19:33N 45°38' E 013°45'0 0.0
2017-Jan-16 18:33N 45°38' E 013°45'0 0.0
2017-Jan-16 17:32N 45°38' E 013°45'0 0.5
2017-Jan-16 16:33N 45°39' E 013°45'1111.1
2017-Jan-16 15:33N 45°34' E 013°30'1717.0
2017-Jan-16 14:33N 45°22' E 013°13'1818.1
2017-Jan-16 13:33N 45°04' E 013°20'1818.5
2017-Jan-16 12:33N 44°48' E 013°32'1918.5
2017-Jan-16 11:33N 44°32' E 013°46'1919.1
2017-Jan-16 10:33N 44°16' E 014°00'57719.2
2017-Jan-15 04:32N 36°41' E 021°46'1818.8
2017-Jan-15 03:33N 36°32' E 022°06'1818.5
2017-Jan-15 02:33N 36°23' E 022°26'6916.8
2017-Jan-14 22:27N 36°58' E 023°41'3819.3
2017-Jan-14 20:28N 37°31' E 024°05'140 3.0
2017-Jan-12 21:33N 39°30' E 025°40'12019.5
2017-Jan-12 15:25N 37°44' E 024°30'21513.4
2017-Jan-11 23:24N 38°26' E 020°02'1719.1
2017-Jan-11 22:32N 38°40' E 019°51'42619.2
2017-Jan-11 00:24N 44°13' E 013°57'1618.8
2017-Jan-10 23:33N 44°26' E 013°45'1918.7
2017-Jan-10 22:33N 44°42' E 013°31'1918.9
2017-Jan-10 21:33N 44°58' E 013°16'1918.6
2017-Jan-10 20:33N 45°14' E 013°04'1716.7
2017-Jan-10 19:33N 45°29' E 013°14'1918.8
2017-Jan-10 18:33N 45°39' E 013°38'5 4.8
2017-Jan-10 17:30N 45°39' E 013°45'0 0.0
2017-Jan-10 16:33N 45°39' E 013°45'0 0.0
2017-Jan-10 15:32N 45°39' E 013°45'0 0.0
2017-Jan-10 14:26N 45°39' E 013°45'0 0.0
2017-Jan-10 13:31N 45°39' E 013°45'0 0.0
2017-Jan-10 12:31N 45°39' E 013°45'0 0.0
2017-Jan-10 11:34N 45°39' E 013°45'0 0.0
2017-Jan-10 10:33N 45°39' E 013°45'0 0.0
2017-Jan-10 09:33N 45°39' E 013°45'0 0.0
2017-Jan-10 08:32N 45°39' E 013°45'0 0.0
2017-Jan-10 07:26N 45°39' E 013°45'0 0.0
2017-Jan-10 06:31N 45°39' E 013°45'0 0.1
2017-Jan-10 05:33N 45°39' E 013°45'7 6.7
2017-Jan-10 04:33N 45°37' E 013°36'1717.0
2017-Jan-10 03:33N 45°26' E 013°17'1717.0
2017-Jan-10 02:33N 45°09' E 013°17'1918.7
2017-Jan-10 01:33N 44°52' E 013°28'1918.7
2017-Jan-10 00:33N 44°36' E 013°42'  
Track history (hours):
 
Tides and Currents Weather Stations Pressure Air Temp Water Temp Dewpoint Dewpoint Depression Visibility Wind Speed Wind Dir Waves Ship Positions

Cuneyt Solakoglu

Last reported at 2017-Jan-19 00:14 UTC. Time now 2017-Jan-20 16:01 UTC.
Position N 38°29' E 024°59'.

Length 193 m; draft 6.4 m.

Type: Ship (hazmat cat A). MMSI: 271002676.

Date/timePositionNaut miles runAvg speedWind from/ knotsBaromVisibWave heightAir tempDewpointWater temp
2017-Jan-19 00:14N 38°29' E 024°59'3820.4
2017-Jan-18 22:23N 37°55' E 024°37'1720.1
2017-Jan-18 21:32N 37°40' E 024°27'61815.7
2017-Jan-17 06:15N 44°13' E 013°57'1318.2
2017-Jan-17 05:33N 44°24' E 013°47'1818.0
2017-Jan-17 04:33N 44°39' E 013°33'1919.4
2017-Jan-17 03:34N 44°55' E 013°19'1919.2
2017-Jan-17 02:33N 45°12' E 013°05'1817.9
2017-Jan-17 01:34N 45°29' E 013°13'2019.5
2017-Jan-17 00:34N 45°39' E 013°37'5 5.1
2017-Jan-16 23:29N 45°38' E 013°45'0 0.0
2017-Jan-16 22:31N 45°38' E 013°45'0 0.0
2017-Jan-16 21:31N 45°38' E 013°45'0 0.0
2017-Jan-16 20:34N 45°38' E 013°45'0 0.0
2017-Jan-16 19:33N 45°38' E 013°45'0 0.0
2017-Jan-16 18:33N 45°38' E 013°45'0 0.0
2017-Jan-16 17:32N 45°38' E 013°45'0 0.5
2017-Jan-16 16:33N 45°39' E 013°45'1111.1
2017-Jan-16 15:33N 45°34' E 013°30'1717.0
2017-Jan-16 14:33N 45°22' E 013°13'1818.1
2017-Jan-16 13:33N 45°04' E 013°20'1818.5
2017-Jan-16 12:33N 44°48' E 013°32'1918.5
2017-Jan-16 11:33N 44°32' E 013°46'1919.1
2017-Jan-16 10:33N 44°16' E 014°00'57719.2
2017-Jan-15 04:32N 36°41' E 021°46'1818.8
2017-Jan-15 03:33N 36°32' E 022°06'1818.5
2017-Jan-15 02:33N 36°23' E 022°26'6916.8
2017-Jan-14 22:27N 36°58' E 023°41'3819.3
2017-Jan-14 20:28N 37°31' E 024°05'140 3.0
2017-Jan-12 21:33N 39°30' E 025°40'12019.5
2017-Jan-12 15:25N 37°44' E 024°30'21513.4
2017-Jan-11 23:24N 38°26' E 020°02'1719.1
2017-Jan-11 22:32N 38°40' E 019°51'42619.2
2017-Jan-11 00:24N 44°13' E 013°57'1618.8
2017-Jan-10 23:33N 44°26' E 013°45'1918.7
2017-Jan-10 22:33N 44°42' E 013°31'1918.9
2017-Jan-10 21:33N 44°58' E 013°16'1918.6
2017-Jan-10 20:33N 45°14' E 013°04'1716.7
2017-Jan-10 19:33N 45°29' E 013°14'1918.8
2017-Jan-10 18:33N 45°39' E 013°38'5 4.8
2017-Jan-10 17:30N 45°39' E 013°45'0 0.0
2017-Jan-10 16:33N 45°39' E 013°45'0 0.0
2017-Jan-10 15:32N 45°39' E 013°45'0 0.0
2017-Jan-10 14:26N 45°39' E 013°45'0 0.0
2017-Jan-10 13:31N 45°39' E 013°45'0 0.0
2017-Jan-10 12:31N 45°39' E 013°45'0 0.0
2017-Jan-10 11:34N 45°39' E 013°45'0 0.0
2017-Jan-10 10:33N 45°39' E 013°45'0 0.0
2017-Jan-10 09:33N 45°39' E 013°45'0 0.0
2017-Jan-10 08:32N 45°39' E 013°45'0 0.0
2017-Jan-10 07:26N 45°39' E 013°45'0 0.0
2017-Jan-10 06:31N 45°39' E 013°45'0 0.1
2017-Jan-10 05:33N 45°39' E 013°45'7 6.7
2017-Jan-10 04:33N 45°37' E 013°36'1717.0
2017-Jan-10 03:33N 45°26' E 013°17'1717.0
2017-Jan-10 02:33N 45°09' E 013°17'1918.7
2017-Jan-10 01:33N 44°52' E 013°28'1918.7
2017-Jan-10 00:33N 44°36' E 013°42'  

Dump ship's entire track history